createdAt,value
2019-05-09T00:02:25.710Z,94439.16
2019-05-09T00:04:57.580Z,94435.45
2019-05-09T00:07:27.995Z,94434.48
2019-05-09T00:09:59.789Z,94434.58
2019-05-09T00:12:33.563Z,94437.25
2019-05-09T00:15:06.446Z,94431.66
2019-05-09T00:17:36.895Z,94448.56
2019-05-09T00:20:14.037Z,94433.07
2019-05-09T00:22:44.795Z,94445.69
2019-05-09T00:25:19.970Z,94435.58
2019-05-09T00:27:50.429Z,94441.17
2019-05-09T00:30:44.728Z,94434.55
2019-05-09T00:33:16.890Z,94442.56
2019-05-09T00:35:48.526Z,94438.38
2019-05-09T00:38:20.763Z,94449.95
2019-05-09T00:40:58.674Z,94441.43
2019-05-09T00:43:27.950Z,94450.11
2019-05-09T00:46:23.709Z,94446.22
2019-05-09T00:48:58.713Z,94452.44
2019-05-09T00:51:29.190Z,94464.25
2019-05-09T00:54:09.670Z,94468.00
2019-05-09T00:56:40.094Z,94474.45
2019-05-09T00:59:13.547Z,94473.95
2019-05-09T01:01:47.649Z,94473.16
2019-05-09T01:04:18.131Z,94482.47
2019-05-09T01:06:49.712Z,94476.80
2019-05-09T01:09:24.303Z,94480.02
2019-05-09T01:11:55.085Z,94481.17
2019-05-09T01:14:26.202Z,94473.16
2019-05-09T01:16:59.104Z,94469.41
2019-05-09T01:19:29.513Z,94470.73
2019-05-09T01:22:00.279Z,94468.11
2019-05-09T01:24:33.769Z,94454.00
2019-05-09T01:27:09.680Z,94484.97
2019-05-09T01:29:40.107Z,94459.64
2019-05-09T01:32:18.738Z,94465.34
2019-05-09T01:34:52.988Z,94478.65
2019-05-09T01:37:25.694Z,94467.97
2019-05-09T01:39:57.766Z,94465.59
2019-05-09T01:42:28.202Z,94486.91
2019-05-09T01:44:58.907Z,94473.31
2019-05-09T01:47:29.313Z,94484.53
2019-05-09T01:49:59.757Z,94478.40
2019-05-09T01:52:30.221Z,94456.53
2019-05-09T01:55:05.888Z,94492.04
2019-05-09T01:57:36.317Z,94475.77
2019-05-09T02:00:07.094Z,94468.34
2019-05-09T02:02:43.528Z,94485.77
2019-05-09T02:05:13.974Z,94482.77
2019-05-09T02:07:44.433Z,94467.87
2019-05-09T02:10:14.824Z,94480.72
2019-05-09T02:12:45.289Z,94486.09
2019-05-09T02:15:26.917Z,94501.56
2019-05-09T02:18:16.256Z,94494.64
2019-05-09T02:20:46.730Z,94486.63
2019-05-09T02:23:23.387Z,94494.14
2019-05-09T02:25:54.126Z,94467.73
2019-05-09T02:28:34.120Z,94483.81
2019-05-09T02:31:05.544Z,94493.16
2019-05-09T02:33:36.126Z,94488.65
2019-05-09T02:36:09.464Z,94486.52
2019-05-09T02:38:39.689Z,94480.89
2019-05-09T02:41:14.102Z,94479.31
2019-05-09T02:43:49.269Z,94478.27
2019-05-09T02:46:41.015Z,94474.05
2019-05-09T02:49:11.434Z,94477.25
2019-05-09T02:51:42.059Z,94473.83
2019-05-09T02:54:12.435Z,94490.41
2019-05-09T02:56:49.861Z,94486.95
2019-05-09T02:59:45.434Z,94478.95
2019-05-09T03:02:28.954Z,94471.23
2019-05-09T03:04:58.497Z,94486.20
2019-05-09T03:07:48.886Z,94488.33
2019-05-09T03:10:20.819Z,94494.45
2019-05-09T03:12:51.657Z,94479.56
2019-05-09T03:15:22.046Z,94484.36
2019-05-09T03:17:52.643Z,94495.82
2019-05-09T03:20:30.770Z,94513.23
2019-05-09T03:23:01.321Z,94510.59
2019-05-09T03:25:32.290Z,94507.39
2019-05-09T03:28:12.477Z,94502.34
2019-05-09T03:30:44.537Z,94485.53
2019-05-09T03:33:15.078Z,94486.88
2019-05-09T03:35:48.169Z,94492.75
2019-05-09T03:38:18.823Z,94503.70
2019-05-09T03:40:49.274Z,94502.91
2019-05-09T03:43:22.265Z,94502.12
2019-05-09T03:48:39.232Z,94495.52
2019-05-09T03:51:15.360Z,94493.64
2019-05-09T03:53:48.235Z,94499.80
2019-05-09T03:56:29.723Z,94496.34
2019-05-09T03:59:00.161Z,94502.51
2019-05-09T04:01:30.856Z,94511.84
2019-05-09T04:04:01.296Z,94504.38
2019-05-09T04:06:32.034Z,94503.33
2019-05-09T04:09:08.661Z,94504.16
2019-05-09T04:11:39.137Z,94503.62
2019-05-09T04:14:13.867Z,94507.94
2019-05-09T04:16:44.349Z,94515.94
2019-05-09T04:19:17.353Z,94513.27
2019-05-09T04:22:08.379Z,94498.60
2019-05-09T04:24:39.062Z,94502.34
2019-05-09T04:27:17.793Z,94493.55
2019-05-09T04:29:48.526Z,94493.02
2019-05-09T04:32:27.419Z,94499.94
2019-05-09T04:34:58.092Z,94500.47
2019-05-09T04:37:31.020Z,94497.49
2019-05-09T04:40:03.455Z,94503.62
2019-05-09T04:42:35.031Z,94514.80
2019-05-09T04:45:17.866Z,94508.38
2019-05-09T04:47:48.579Z,94522.52
2019-05-09T04:50:24.848Z,94508.09
2019-05-09T04:52:53.180Z,94517.44
2019-05-09T04:55:27.342Z,94517.44
2019-05-09T04:58:00.073Z,94517.15
2019-05-09T05:00:49.037Z,94527.03
2019-05-09T05:03:21.015Z,94521.66
2019-05-09T05:05:51.473Z,94523.47
2019-05-09T05:08:37.560Z,94527.44
2019-05-09T05:11:12.068Z,94532.23
2019-05-09T05:13:44.099Z,94540.71
2019-05-09T05:16:18.514Z,94535.03
2019-05-09T05:18:49.112Z,94542.17
2019-05-09T05:21:21.994Z,94543.41
2019-05-09T05:24:18.496Z,94540.12
2019-05-09T05:26:52.982Z,94535.80
2019-05-09T05:29:28.203Z,94524.80
2019-05-09T05:32:00.661Z,94531.44
2019-05-09T05:34:42.467Z,94537.44
2019-05-09T05:37:12.894Z,94535.20
2019-05-09T05:39:44.132Z,94539.42
2019-05-09T05:42:14.802Z,94542.23
2019-05-09T05:44:47.538Z,94539.53
2019-05-09T05:47:33.926Z,94534.11
2019-05-09T05:50:04.401Z,94535.13
2019-05-09T05:52:38.273Z,94535.87
2019-05-09T05:55:08.846Z,94540.93
2019-05-09T05:57:43.947Z,94538.72
2019-05-09T06:00:17.919Z,94543.41
2019-05-09T06:02:48.049Z,94539.95
2019-05-09T06:05:19.097Z,94538.15
2019-05-09T06:07:49.533Z,94534.94
2019-05-09T06:10:20.182Z,94528.51
2019-05-09T06:12:50.933Z,94532.44
2019-05-09T06:15:28.952Z,94532.28
2019-05-09T06:17:59.463Z,94532.08
2019-05-09T06:20:38.533Z,94534.30
2019-05-09T06:23:14.973Z,94532.66
2019-05-09T06:25:48.261Z,94528.33
2019-05-09T06:28:18.201Z,94527.44
2019-05-09T06:30:49.588Z,94532.25
2019-05-09T06:33:20.020Z,94530.54
2019-05-09T06:35:50.550Z,94528.73
2019-05-09T06:38:24.989Z,94529.53
2019-05-09T06:40:57.979Z,94527.03
2019-05-09T06:43:30.641Z,94524.19
2019-05-09T06:46:09.625Z,94523.02
2019-05-09T06:48:43.165Z,94518.96
2019-05-09T06:51:13.834Z,94520.37
2019-05-09T06:53:44.811Z,94515.88
2019-05-09T06:56:19.340Z,94511.75
2019-05-09T06:58:49.840Z,94509.25
2019-05-09T07:01:39.369Z,94514.90
2019-05-09T07:04:18.646Z,94504.25
2019-05-09T07:07:03.099Z,94517.72
2019-05-09T07:09:43.417Z,94519.30
2019-05-09T07:12:13.874Z,94508.25
2019-05-09T07:14:52.314Z,94511.36
2019-05-09T07:17:23.037Z,94510.87
2019-05-09T07:19:53.588Z,94509.05
2019-05-09T07:22:41.639Z,94504.13
2019-05-09T07:25:43.273Z,94499.83
2019-05-09T07:28:14.103Z,94505.59
2019-05-09T07:31:04.253Z,94503.11
2019-05-09T07:33:58.681Z,94507.75
2019-05-09T07:36:30.114Z,94508.02
2019-05-09T07:39:08.766Z,94517.25
2019-05-09T07:41:42.505Z,94512.63
2019-05-09T07:44:18.058Z,94513.94
2019-05-09T07:46:55.103Z,94515.09
2019-05-09T07:49:28.893Z,94506.63
2019-05-09T07:52:06.614Z,94520.69
2019-05-09T07:54:37.687Z,94514.69
2019-05-09T07:57:09.859Z,94511.70
2019-05-09T07:59:40.294Z,94522.48
2019-05-09T08:02:14.267Z,94514.92
2019-05-09T08:04:49.106Z,94511.98
2019-05-09T08:07:19.401Z,94505.55
2019-05-09T08:09:51.313Z,94506.83
2019-05-09T08:12:28.435Z,94516.29
2019-05-09T08:15:08.542Z,94510.66
2019-05-09T08:17:31.166Z,94525.90
2019-05-09T08:20:03.144Z,94530.25
2019-05-09T08:22:40.942Z,94528.89
2019-05-09T08:25:10.110Z,94526.41
2019-05-09T08:27:40.542Z,94521.36
2019-05-09T08:30:14.210Z,94527.83
2019-05-09T08:32:48.258Z,94531.06
2019-05-09T08:35:35.224Z,94539.13
2019-05-09T08:38:08.302Z,94528.55
2019-05-09T08:40:38.607Z,94525.02
2019-05-09T08:43:11.949Z,94527.81
2019-05-09T08:45:44.172Z,94512.08
2019-05-09T08:48:14.922Z,94521.73
2019-05-09T08:50:49.465Z,94516.81
2019-05-09T08:53:27.458Z,94519.27
2019-05-09T08:55:58.094Z,94528.42
2019-05-09T08:58:29.415Z,94514.45
2019-05-09T09:01:03.830Z,94524.23
2019-05-09T09:03:37.710Z,94531.75
2019-05-09T09:06:11.163Z,94521.04
2019-05-09T09:08:48.102Z,94519.20
2019-05-09T09:11:21.092Z,94531.42
2019-05-09T09:13:52.457Z,94531.52
2019-05-09T09:16:22.990Z,94531.25
2019-05-09T09:18:53.511Z,94521.91
2019-05-09T09:21:35.675Z,94526.63
2019-05-09T09:24:09.279Z,94521.55
2019-05-09T09:26:40.116Z,94529.58
2019-05-09T09:29:11.035Z,94540.45
2019-05-09T09:31:41.542Z,94537.13
2019-05-09T09:34:12.460Z,94541.25
2019-05-09T09:36:43.391Z,94536.48
2019-05-09T09:39:14.384Z,94540.10
2019-05-09T09:41:44.926Z,94533.83
2019-05-09T09:44:22.515Z,94544.50
2019-05-09T09:46:53.682Z,94531.80
2019-05-09T09:49:31.889Z,94544.41
2019-05-09T09:52:02.832Z,94536.17
2019-05-09T09:54:35.108Z,94540.66
2019-05-09T09:57:09.655Z,94533.80
2019-05-09T09:59:48.349Z,94533.92
2019-05-09T10:02:22.569Z,94537.17
2019-05-09T10:04:53.332Z,94537.09
2019-05-09T10:07:24.005Z,94533.38
2019-05-09T10:09:55.018Z,94530.07
2019-05-09T10:12:29.223Z,94530.11
2019-05-09T10:15:08.333Z,94529.31
2019-05-09T10:21:06.061Z,94506.27
2019-05-09T10:23:37.875Z,94520.72
2019-05-09T10:26:08.759Z,94517.61
2019-05-09T10:28:45.232Z,94518.62
2019-05-09T10:31:16.977Z,94516.47
2019-05-09T10:33:48.361Z,94534.32
2019-05-09T10:36:19.240Z,94525.76
2019-05-09T10:38:49.745Z,94531.27
2019-05-09T10:41:20.257Z,94535.08
2019-05-09T10:44:02.083Z,94535.06
2019-05-09T10:46:53.616Z,94531.20
2019-05-09T10:49:21.092Z,94521.41
2019-05-09T10:51:58.081Z,94528.58
2019-05-09T10:54:50.585Z,94522.48
2019-05-09T10:57:32.334Z,94525.38
2019-05-09T11:00:03.486Z,94525.62
2019-05-09T11:02:37.641Z,94520.09
2019-05-09T11:05:08.542Z,94524.31
2019-05-09T11:07:39.145Z,94525.05
2019-05-09T11:10:25.922Z,94520.87
2019-05-09T11:12:51.229Z,94514.52
2019-05-09T11:15:23.781Z,94510.47
2019-05-09T11:17:57.694Z,94509.17
2019-05-09T11:20:28.573Z,94504.33
2019-05-09T11:23:08.391Z,94503.62
2019-05-09T11:25:40.242Z,94503.39
2019-05-09T11:28:15.055Z,94503.88
2019-05-09T11:30:47.528Z,94493.41
2019-05-09T11:33:21.074Z,94491.78
2019-05-09T11:35:53.322Z,94491.80
2019-05-09T11:38:32.693Z,94488.26
2019-05-09T11:40:57.955Z,94482.52
2019-05-09T11:43:30.102Z,94480.93
2019-05-09T11:46:01.303Z,94477.67
2019-05-09T11:48:32.752Z,94486.67
2019-05-09T11:51:14.340Z,94482.05
2019-05-09T11:53:48.648Z,94486.84
2019-05-09T11:56:20.660Z,94481.30
2019-05-09T11:58:58.165Z,94478.34
2019-05-09T12:01:29.241Z,94464.83
2019-05-09T12:04:00.107Z,94474.91
2019-05-09T12:06:30.682Z,94470.41
2019-05-09T12:09:05.232Z,94480.23
2019-05-09T12:11:43.459Z,94481.36
2019-05-09T12:14:11.276Z,94477.53
2019-05-09T12:16:43.462Z,94475.92
2019-05-09T12:19:14.340Z,94476.58
2019-05-09T12:21:47.963Z,94473.53
2019-05-09T12:24:21.316Z,94472.17
2019-05-09T12:27:02.898Z,94480.83
2019-05-09T12:29:34.413Z,94476.60
2019-05-09T12:32:05.657Z,94482.31
2019-05-09T12:34:36.465Z,94477.26
2019-05-09T12:37:09.494Z,94478.37
2019-05-09T12:39:41.097Z,94476.76
2019-05-09T12:42:28.812Z,94484.27
2019-05-09T12:45:01.041Z,94481.23
2019-05-09T12:47:34.121Z,94482.06
2019-05-09T12:50:04.801Z,94482.41
2019-05-09T12:52:59.408Z,94487.48
2019-05-09T12:55:32.743Z,94479.60
2019-05-09T12:58:03.768Z,94483.20
2019-05-09T13:00:38.438Z,94478.89
2019-05-09T13:03:19.540Z,94485.78
2019-05-09T13:05:52.251Z,94482.50
2019-05-09T13:08:24.154Z,94482.96
2019-05-09T13:10:58.332Z,94480.38
2019-05-09T13:13:32.593Z,94481.56
2019-05-09T13:16:13.805Z,94477.38
2019-05-09T13:19:02.556Z,94482.63
2019-05-09T13:21:38.365Z,94474.09
2019-05-09T13:27:38.742Z,94471.06
2019-05-09T13:30:13.815Z,94478.09
2019-05-09T13:35:39.548Z,94463.25
2019-05-09T13:38:11.290Z,94467.84
2019-05-09T13:40:52.981Z,94463.00
2019-05-09T13:43:28.099Z,94470.22
2019-05-09T13:46:00.353Z,94464.98
2019-05-09T13:48:57.135Z,94464.62
2019-05-09T13:51:07.743Z,94462.30
2019-05-09T13:53:42.928Z,94465.70
2019-05-09T13:56:17.858Z,94466.00
2019-05-09T13:58:59.922Z,94465.27
2019-05-09T14:01:31.116Z,94465.49
2019-05-09T14:04:02.147Z,94462.69
2019-05-09T14:06:39.078Z,94458.27
2019-05-09T14:09:16.249Z,94461.98
2019-05-09T14:11:49.534Z,94450.80
2019-05-09T14:14:20.239Z,94458.15
2019-05-09T14:20:13.796Z,94460.11
2019-05-09T14:22:52.416Z,94464.90
2019-05-09T14:25:23.429Z,94463.73
2019-05-09T14:27:53.928Z,94462.48
2019-05-09T14:30:27.752Z,94472.29
2019-05-09T14:33:03.207Z,94474.99
2019-05-09T14:35:41.983Z,94474.07
2019-05-09T14:38:15.212Z,94478.55
2019-05-09T14:40:49.168Z,94477.47
2019-05-09T14:43:21.173Z,94481.25
2019-05-09T14:45:52.217Z,94487.83
2019-05-09T14:48:28.750Z,94486.27
2019-05-09T14:51:03.366Z,94481.67
2019-05-09T14:53:34.112Z,94477.30
2019-05-09T14:56:05.070Z,94483.02
2019-05-09T14:58:39.048Z,94484.81
2019-05-09T15:01:19.354Z,94476.65
2019-05-09T15:03:51.233Z,94482.41
2019-05-09T15:06:38.099Z,94476.09
2019-05-09T15:09:14.950Z,94471.66
2019-05-09T15:11:44.415Z,94472.53
2019-05-09T15:14:20.789Z,94473.66
2019-05-09T15:16:52.754Z,94472.59
2019-05-09T15:19:28.586Z,94470.67
2019-05-09T15:22:01.010Z,94465.44
2019-05-09T15:24:34.494Z,94464.50
2019-05-09T15:27:05.280Z,94464.48
2019-05-09T15:30:19.524Z,94463.59
2019-05-09T15:32:54.305Z,94458.08
2019-05-09T15:35:25.100Z,94453.62
2019-05-09T15:37:55.707Z,94464.20
2019-05-09T15:40:29.921Z,94460.27
2019-05-09T15:43:04.005Z,94457.23
2019-05-09T15:46:04.710Z,94461.48
2019-05-09T15:48:38.365Z,94458.44
2019-05-09T15:51:09.252Z,94460.27
2019-05-09T15:53:39.779Z,94460.05
2019-05-09T15:56:18.969Z,94461.02
2019-05-09T15:58:49.941Z,94453.72
2019-05-09T16:01:22.829Z,94451.13
2019-05-09T16:03:55.123Z,94456.62
2019-05-09T16:06:33.045Z,94464.97
2019-05-09T16:09:01.350Z,94470.45
2019-05-09T16:11:37.615Z,94470.77
2019-05-09T16:14:07.744Z,94474.11
2019-05-09T16:16:38.650Z,94471.84
2019-05-09T16:19:09.421Z,94471.59
2019-05-09T16:21:44.224Z,94467.24
2019-05-09T16:24:18.838Z,94472.23
2019-05-09T16:26:50.031Z,94477.59
2019-05-09T16:29:21.234Z,94476.75
2019-05-09T16:31:54.311Z,94481.33
2019-05-09T16:35:09.976Z,94480.33
2019-05-09T16:38:45.782Z,94471.97
2019-05-09T16:41:13.485Z,94483.05
2019-05-09T16:43:52.765Z,94480.41
2019-05-09T16:46:28.427Z,94483.54
2019-05-09T16:48:58.357Z,94488.42
2019-05-09T16:51:34.117Z,94476.63
2019-05-09T16:54:07.843Z,94479.75
2019-05-09T16:56:49.544Z,94488.78
2019-05-09T16:59:24.801Z,94486.33
2019-05-09T17:01:57.711Z,94482.17
2019-05-09T17:04:40.296Z,94489.38
2019-05-09T17:07:13.365Z,94483.73
2019-05-09T17:09:45.265Z,94487.48
2019-05-09T17:12:20.851Z,94495.03
2019-05-09T17:14:59.435Z,94493.92
2019-05-09T17:17:27.965Z,94493.88
2019-05-09T17:20:04.194Z,94496.17
2019-05-09T17:23:07.586Z,94503.63
2019-05-09T17:25:47.988Z,94509.65
2019-05-09T17:28:18.315Z,94522.09
2019-05-09T17:31:11.706Z,94529.17
2019-05-09T17:33:42.403Z,94540.91
2019-05-09T17:36:23.715Z,94540.95
2019-05-09T17:39:00.236Z,94539.83
2019-05-09T17:41:32.739Z,94547.69
2019-05-09T17:44:03.265Z,94545.75
2019-05-09T17:46:39.967Z,94538.45
2019-05-09T17:49:12.334Z,94548.13
2019-05-09T17:51:42.991Z,94546.73
2019-05-09T17:54:23.249Z,94539.94
2019-05-09T17:56:57.333Z,94545.09
2019-05-09T17:59:44.993Z,94545.23
2019-05-09T18:02:20.053Z,94542.11
2019-05-09T18:04:52.109Z,94547.34
2019-05-09T18:07:22.966Z,94540.16
2019-05-09T18:10:00.178Z,94546.98
2019-05-09T18:12:39.035Z,94547.03
2019-05-09T18:15:13.095Z,94546.59
2019-05-09T18:17:58.818Z,94544.63
2019-05-09T18:20:30.572Z,94552.23
2019-05-09T18:23:10.982Z,94554.59
2019-05-09T18:25:45.001Z,94552.01
2019-05-09T18:28:20.106Z,94551.92
2019-05-09T18:31:02.677Z,94553.30
2019-05-09T18:34:10.372Z,94559.11
2019-05-09T18:36:41.217Z,94558.19
2019-05-09T18:39:14.810Z,94557.77
2019-05-09T18:41:45.307Z,94556.72
2019-05-09T18:44:39.388Z,94557.77
2019-05-09T18:47:14.368Z,94557.27
2019-05-09T18:49:46.366Z,94557.56
2019-05-09T18:52:21.829Z,94558.94
2019-05-09T18:54:55.110Z,94553.42
2019-05-09T18:57:34.004Z,94563.06
2019-05-09T19:00:06.234Z,94559.39
2019-05-09T19:02:42.191Z,94561.02
2019-05-09T19:05:13.220Z,94562.86
2019-05-09T19:07:46.178Z,94565.03
2019-05-09T19:10:18.659Z,94567.95
2019-05-09T19:12:55.064Z,94567.70
2019-05-09T19:15:51.706Z,94569.36
2019-05-09T19:18:41.103Z,94576.26
2019-05-09T19:21:37.612Z,94571.67
2019-05-09T19:24:08.264Z,94570.38
2019-05-09T19:26:40.201Z,94564.73
2019-05-09T19:29:12.726Z,94581.06
2019-05-09T19:31:50.704Z,94577.30
2019-05-09T19:34:23.009Z,94578.79
2019-05-09T19:36:55.682Z,94581.25
2019-05-09T19:39:33.074Z,94578.03
2019-05-09T19:42:17.242Z,94581.86
2019-05-09T19:44:48.391Z,94575.73
2019-05-09T19:47:20.372Z,94580.81
2019-05-09T19:49:54.163Z,94573.88
2019-05-09T19:52:38.204Z,94582.23
2019-05-09T19:55:10.264Z,94588.04
2019-05-09T19:57:54.453Z,94582.41
2019-05-09T20:00:27.989Z,94582.95
2019-05-09T20:03:03.109Z,94583.20
2019-05-09T20:05:37.342Z,94584.53
2019-05-09T20:08:08.685Z,94586.59
2019-05-09T20:11:22.126Z,94592.80
2019-05-09T20:14:29.637Z,94586.38
2019-05-09T20:17:04.200Z,94585.52
2019-05-09T20:19:36.253Z,94588.55
2019-05-09T20:22:07.113Z,94588.97
2019-05-09T20:24:39.332Z,94585.83
2019-05-09T20:27:12.951Z,94585.88
2019-05-09T20:29:43.883Z,94585.26
2019-05-09T20:32:17.072Z,94588.83
2019-05-09T20:34:51.048Z,94584.03
2019-05-09T20:37:21.759Z,94589.05
2019-05-09T20:39:52.402Z,94594.72
2019-05-09T20:42:33.097Z,94591.21
2019-05-09T20:45:05.834Z,94597.28
2019-05-09T20:47:37.772Z,94596.27
2019-05-09T20:50:08.568Z,94598.88
2019-05-09T20:52:43.136Z,94596.95
2019-05-09T20:55:16.144Z,94597.42
2019-05-09T20:57:46.838Z,94598.94
2019-05-09T21:00:21.156Z,94598.64
2019-05-09T21:02:51.812Z,94605.87
2019-05-09T21:05:22.825Z,94606.95
2019-05-09T21:07:53.517Z,94610.17
2019-05-09T21:10:28.778Z,94612.59
2019-05-09T21:12:59.433Z,94616.85
2019-05-09T21:15:32.258Z,94613.05
2019-05-09T21:18:04.733Z,94617.02
2019-05-09T21:20:37.208Z,94615.19
2019-05-09T21:23:23.490Z,94615.48
2019-05-09T21:25:42.245Z,94612.05
2019-05-09T21:28:13.134Z,94616.85
2019-05-09T21:30:45.100Z,94614.43
2019-05-09T21:33:16.058Z,94612.80
2019-05-09T21:35:46.540Z,94617.86
2019-05-09T21:38:22.916Z,94622.38
2019-05-09T21:40:56.104Z,94618.61
2019-05-09T21:43:27.637Z,94623.89
2019-05-09T21:46:03.999Z,94624.14
2019-05-09T21:48:40.194Z,94619.34
2019-05-09T21:51:12.970Z,94626.38
2019-05-09T21:53:45.926Z,94629.78
2019-05-09T21:56:16.485Z,94631.22
2019-05-09T21:58:50.125Z,94637.65
2019-05-09T22:01:25.450Z,94637.65
2019-05-09T22:03:57.389Z,94636.06
2019-05-09T22:06:41.193Z,94634.73
2019-05-09T22:09:14.793Z,94644.41
2019-05-09T22:11:45.679Z,94648.23
2019-05-09T22:14:19.117Z,94650.36
2019-05-09T22:16:49.930Z,94659.97
2019-05-09T22:19:37.231Z,94662.67
2019-05-09T22:22:07.770Z,94666.44
2019-05-09T22:24:38.324Z,94674.77
2019-05-09T22:27:09.104Z,94682.85
2019-05-09T22:29:39.586Z,94690.36
2019-05-09T22:32:10.889Z,94694.41
2019-05-09T22:34:42.948Z,94703.50
2019-05-09T22:37:15.832Z,94708.59
2019-05-09T22:39:46.348Z,94719.05
2019-05-09T22:42:16.824Z,94726.75
2019-05-09T22:44:57.098Z,94729.14
2019-05-09T22:47:29.719Z,94733.23
2019-05-09T22:50:01.985Z,94732.56
2019-05-09T22:52:32.763Z,94733.45
2019-05-09T22:55:03.334Z,94736.75
2019-05-09T22:57:34.120Z,94745.68
2019-05-09T23:00:09.198Z,94751.08
2019-05-09T23:02:41.329Z,94751.95
2019-05-09T23:05:11.971Z,94758.66
2019-05-09T23:07:44.106Z,94762.66
2019-05-09T23:10:14.997Z,94762.97
2019-05-09T23:12:45.791Z,94768.85
2019-05-09T23:15:18.498Z,94770.70
2019-05-09T23:17:49.236Z,94771.78
2019-05-09T23:20:38.660Z,94771.78
2019-05-09T23:23:43.323Z,94775.50
2019-05-09T23:26:17.532Z,94778.42
2019-05-09T23:28:48.486Z,94779.76
2019-05-09T23:31:24.994Z,94778.94
2019-05-09T23:33:55.514Z,94785.89
2019-05-09T23:36:27.232Z,94783.48
2019-05-09T23:39:22.781Z,94785.61
2019-05-09T23:41:53.290Z,94784.81
2019-05-09T23:44:32.468Z,94786.41
2019-05-09T23:47:02.962Z,94791.23
2019-05-09T23:49:33.501Z,94785.41
2019-05-09T23:52:04.418Z,94784.38
2019-05-09T23:54:54.306Z,94791.05
2019-05-09T23:57:42.542Z,94796.16
